Bei Facebook empfehlenBei Twitter postenGoogle plusPinterest

Das Wetter im Erzgebirge am 28.09.2016

Wetter und Klima am 28.09.2016 Holzhau im Erzgebirge (630m ü.NN)
Letzte gemessene Temperatur und Uhrzeit der Messung23:45:00 Uhr12.10 °C
Temperatur (Maximum / Höchstwert) und Uhrzeit der Messung15:15:00 Uhr19.80 °C
Temperatur (Minimum / Tiefstwert) und Uhrzeit der Messung02:45:005.00 °C
Errechneter Absolutwert der Temperaturschwankungen zwischen Tmin und Tmax des Tages14.80 K
Errechnete Tagesmitteltemperatur12.16458 °C
Gesamt - Niederschlag des Tages (in flüssiger Form)0.00 Liter / m²
Luftdruck (Maximum / Höchstwert) und Zeitpunkt der Messung00:15:00 Uhr1024.40 hPa
Luftdruck (Minimum / Tiefstwert) und Zeitpunkt der Messung21:45:00 Uhr1020.10 hPa
Errechneter Absolutwert der Luftdruckschwankungen des Tages4.30 hPa
Höchste gemessene Windgeschwindigkeit und Uhrzeit der Messung23:45:00 Uhr0.00 km/h
Errechnete Windhäufigkeit in Relation zu den Messwerten des Tages0.00000 %
Niedrigste Windkühle (Windchill) und Zeitpunkt der Messung02:45:00 Uhr5.00 °C
Taupunkt (Maximum / Höchstwert) und Uhrzeit der Messung10:30:00 Uhr15.30 °C
Taupunkt (Minimum / Tiefstwert) und Uhrzeit der Messung02:45:003.80 °C
Anzahl der automatisch eingelesenen Messwerte 96

Detaillierte Wetter- und Klima- Messwerte für den 28.09.2016 in Holzhau im Erzgebirge (630m ü.NN)
ZeitTemperaturLuftdruckRel. LuftfeuchteWindWindrichtungWindchillTaupunktNiederschlag l/m²
23:45:0012.10 °C1020.40 hPa82.00 %9.10 °C 
23:30:0012.00 °C1020.40 hPa82.00 %9.00 °C 
23:15:0011.90 °C1020.20 hPa81.00 %8.70 °C 
23:00:0012.00 °C1020.20 hPa81.00 %8.80 °C 
22:45:0012.20 °C1020.40 hPa80.00 %8.90 °C 
22:30:0012.20 °C1020.20 hPa80.00 %8.90 °C 
22:15:0012.30 °C1020.20 hPa80.00 %9.00 °C 
22:00:0012.60 °C1020.20 hPa79.00 %9.10 °C 
21:45:0013.00 °C1020.10 hPa79.00 %9.40 °C 
21:30:0013.30 °C1020.30 hPa78.00 %9.50 °C 
21:15:0013.50 °C1020.30 hPa78.00 %9.70 °C 
21:00:0013.70 °C1020.30 hPa78.00 %9.90 °C 
20:45:0013.80 °C1020.40 hPa77.00 %9.80 °C 
20:30:0014.00 °C1020.20 hPa76.00 %9.80 °C 
20:15:0014.20 °C1020.20 hPa76.00 %10.00 °C 
20:00:0014.10 °C1020.20 hPa75.00 %9.70 °C 
19:45:0014.50 °C1020.30 hPa74.00 %9.90 °C 
19:30:0014.90 °C1020.20 hPa74.00 %10.30 °C 
19:15:0014.90 °C1020.20 hPa73.00 %10.10 °C 
19:00:0015.10 °C1020.20 hPa73.00 %10.30 °C 
18:45:0015.30 °C1020.10 hPa72.00 %10.30 °C 
18:30:0015.50 °C1020.20 hPa71.00 %10.30 °C 
18:15:0015.80 °C1020.20 hPa70.00 %10.30 °C 
18:00:0016.10 °C1020.40 hPa70.00 %10.60 °C 
17:45:0016.40 °C1020.40 hPa68.00 %10.50 °C 
17:30:0016.60 °C1020.20 hPa67.00 %10.50 °C 
17:15:0016.90 °C1020.30 hPa66.00 %10.50 °C 
17:00:0017.20 °C1020.40 hPa64.00 %10.30 °C 
16:45:0017.50 °C1020.50 hPa61.00 %9.90 °C 
16:30:0017.90 °C1020.60 hPa59.00 %9.80 °C 
16:15:0018.50 °C1020.60 hPa59.00 %10.30 °C 
16:00:0019.10 °C1020.70 hPa60.00 %11.20 °C 
15:45:0019.40 °C1020.50 hPa61.00 %11.70 °C 
15:30:0019.50 °C1020.60 hPa59.00 %11.30 °C 
15:15:0019.80 °C1020.60 hPa59.00 %11.60 °C 
15:00:0019.80 °C1020.40 hPa60.00 %11.80 °C 
14:45:0019.60 °C1020.50 hPa60.00 %11.60 °C 
14:30:0019.80 °C1020.80 hPa63.00 %12.60 °C 
14:15:0019.50 °C1021.20 hPa63.00 %12.30 °C 
14:00:0019.40 °C1021.20 hPa65.00 %12.70 °C 
13:45:0019.10 °C1021.40 hPa67.00 %12.80 °C 
13:30:0018.80 °C1021.50 hPa65.00 %12.10 °C 
13:15:0019.10 °C1021.50 hPa66.00 %12.60 °C 
13:00:0018.90 °C1021.50 hPa66.00 %12.40 °C 
12:45:0018.90 °C1021.60 hPa66.00 %12.40 °C 
12:30:0019.60 °C1021.40 hPa69.00 %13.80 °C 
12:15:0019.30 °C1021.60 hPa71.00 %13.90 °C 
12:00:0018.90 °C1021.70 hPa74.00 %14.20 °C 
11:45:0018.50 °C1021.70 hPa78.00 %14.60 °C 
11:30:0017.70 °C1022.10 hPa82.00 %14.60 °C 
11:15:0016.90 °C1022.30 hPa85.00 %14.40 °C 
11:00:0016.90 °C1022.40 hPa88.00 %14.90 °C 
10:45:0016.90 °C1022.60 hPa90.00 %15.20 °C 
10:30:0016.40 °C1022.80 hPa93.00 %15.30 °C 
10:15:0015.60 °C1022.90 hPa95.00 %14.80 °C 
10:00:0014.80 °C1022.90 hPa95.00 %14.00 °C 
09:45:0013.60 °C1022.70 hPa95.00 %12.80 °C 
09:30:0012.80 °C1022.60 hPa95.00 %12.00 °C 
09:15:0011.80 °C1022.90 hPa95.00 %11.00 °C 
09:00:0010.60 °C1022.40 hPa95.00 %9.80 °C 
08:45:008.30 °C1022.50 hPa95.00 %7.50 °C 
08:30:007.60 °C1022.60 hPa95.00 %6.90 °C 
08:15:007.10 °C1022.50 hPa94.00 %6.20 °C 
08:00:006.60 °C1022.40 hPa94.00 %5.70 °C 
07:45:006.20 °C1022.80 hPa94.00 %5.30 °C 
07:30:006.00 °C1022.50 hPa94.00 %5.10 °C 
07:15:005.80 °C1022.80 hPa94.00 %4.90 °C 
07:00:005.60 °C1023.10 hPa94.00 %4.70 °C 
06:45:005.40 °C1023.00 hPa94.00 %4.50 °C 
06:30:005.20 °C1022.90 hPa94.00 %4.30 °C 
06:15:005.30 °C1022.80 hPa94.00 %4.40 °C 
06:00:005.30 °C1022.80 hPa93.00 %4.30 °C 
05:45:005.30 °C1023.00 hPa93.00 %4.30 °C 
05:30:005.30 °C1023.00 hPa93.00 %4.30 °C 
05:15:005.50 °C1023.00 hPa93.00 %4.50 °C 
05:00:005.60 °C1023.00 hPa93.00 %4.60 °C 
04:45:005.40 °C1023.30 hPa93.00 %4.40 °C 
04:30:005.50 °C1023.30 hPa93.00 %4.50 °C 
04:15:005.60 °C1023.20 hPa93.00 %4.60 °C 
04:00:005.80 °C1023.10 hPa93.00 %4.80 °C 
03:45:005.60 °C1023.20 hPa93.00 %4.60 °C 
03:30:005.60 °C1023.50 hPa93.00 %4.60 °C 
03:15:005.40 °C1023.60 hPa93.00 %4.40 °C 
03:00:005.20 °C1023.60 hPa93.00 %4.20 °C 
02:45:005.00 °C1023.70 hPa92.00 %3.80 °C 
02:30:005.10 °C1023.70 hPa92.00 %3.90 °C 
02:15:005.30 °C1023.70 hPa92.00 %4.10 °C 
02:00:005.40 °C1023.70 hPa92.00 %4.20 °C 
01:45:005.40 °C1023.90 hPa92.00 %4.20 °C 
01:30:005.50 °C1023.90 hPa91.00 %4.20 °C 
01:15:005.60 °C1023.90 hPa91.00 %4.20 °C 
01:00:005.80 °C1023.90 hPa91.00 %4.40 °C 
00:45:005.80 °C1024.00 hPa91.00 %4.40 °C 
00:30:005.90 °C1024.10 hPa91.00 %4.50 °C 
00:15:005.90 °C1024.40 hPa91.00 %4.50 °C 
00:00:005.90 °C1024.20 hPa90.00 %4.40 °C 

Permanenter Link zu dieser Seite: Wetter im Erzgebirge am 28.09.2016
Performance-Info: Die Erstellung der Seite / Statistik(en) / Tabelle(n) erforderte 5 Datenbankserver-Abfrage(n) und dauerte 101 Millisekunden. (Dieser Messwert ist von der Gesamt-Auslastung des Servers abhängig.)
Erzgebirge - Wetter | Erzgebirge - Wetter (Mobilgeräte) | Komplette Klimadatenbank